sensor_id;sensor_type;location;lat;lon;timestamp;temperature;humidity
42905;DHT22;28550;51.228;4.528;2023-03-01T07:36:18;3.10;1.00
42905;DHT22;28550;51.228;4.528;2023-03-01T07:46:57;2.90;99.90
42905;DHT22;28550;51.228;4.528;2023-03-01T07:49:24;3.40;1.00
42905;DHT22;28550;51.228;4.528;2023-03-01T07:51:51;4.20;1.00
42905;DHT22;28550;51.228;4.528;2023-03-01T07:54:17;4.70;21.30
42905;DHT22;28550;51.228;4.528;2023-03-01T07:56:45;5.20;1.00
42905;DHT22;28550;51.228;4.528;2023-03-01T07:59:10;5.40;1.00
42905;DHT22;28550;51.228;4.528;2023-03-01T08:01:36;5.60;1.00
42905;DHT22;28550;51.228;4.528;2023-03-01T08:04:01;5.80;99.90
42905;DHT22;28550;51.228;4.528;2023-03-01T08:06:27;6.40;99.90
42905;DHT22;28550;51.228;4.528;2023-03-01T08:08:53;7.30;99.90
42905;DHT22;28550;51.228;4.528;2023-03-01T08:11:20;7.60;99.90
42905;DHT22;28550;51.228;4.528;2023-03-01T08:13:47;8.40;99.90
42905;DHT22;28550;51.228;4.528;2023-03-01T08:16:13;8.90;99.90
42905;DHT22;28550;51.228;4.528;2023-03-01T08:18:41;9.40;1.00
42905;DHT22;28550;51.228;4.528;2023-03-01T08:21:08;10.00;99.90
42905;DHT22;28550;51.228;4.528;2023-03-01T08:23:34;9.90;99.90
42905;DHT22;28550;51.228;4.528;2023-03-01T08:26:04;10.10;99.90
42905;DHT22;28550;51.228;4.528;2023-03-01T08:28:30;10.30;99.90
42905;DHT22;28550;51.228;4.528;2023-03-01T08:30:55;10.50;99.90
42905;DHT22;28550;51.228;4.528;2023-03-01T08:33:21;10.90;85.40
42905;DHT22;28550;51.228;4.528;2023-03-01T08:35:47;10.70;99.90
42905;DHT22;28550;51.228;4.528;2023-03-01T08:38:13;10.30;99.90
42905;DHT22;28550;51.228;4.528;2023-03-01T08:40:38;10.20;99.90
42905;DHT22;28550;51.228;4.528;2023-03-01T08:43:07;10.20;99.90
42905;DHT22;28550;51.228;4.528;2023-03-01T08:45:33;10.50;99.90
42905;DHT22;28550;51.228;4.528;2023-03-01T08:47:58;10.40;99.90
42905;DHT22;28550;51.228;4.528;2023-03-01T08:50:24;9.90;99.90
42905;DHT22;28550;51.228;4.528;2023-03-01T08:52:50;10.40;99.90
42905;DHT22;28550;51.228;4.528;2023-03-01T08:55:16;10.80;58.50
42905;DHT22;28550;51.228;4.528;2023-03-01T08:57:42;11.20;99.90
42905;DHT22;28550;51.228;4.528;2023-03-01T09:00:09;11.30;99.90
42905;DHT22;28550;51.228;4.528;2023-03-01T09:02:34;11.90;99.90
42905;DHT22;28550;51.228;4.528;2023-03-01T09:05:02;11.50;99.90
42905;DHT22;28550;51.228;4.528;2023-03-01T09:07:33;12.10;99.90
42905;DHT22;28550;51.228;4.528;2023-03-01T09:10:00;12.50;99.90
42905;DHT22;28550;51.228;4.528;2023-03-01T09:12:30;12.40;99.90
42905;DHT22;28550;51.228;4.528;2023-03-01T09:14:58;11.60;40.90
42905;DHT22;28550;51.228;4.528;2023-03-01T09:17:24;11.30;33.90
42905;DHT22;28550;51.228;4.528;2023-03-01T09:19:50;11.20;59.60
42905;DHT22;28550;51.228;4.528;2023-03-01T09:22:16;10.70;33.50
42905;DHT22;28550;51.228;4.528;2023-03-01T09:24:41;10.90;69.20
42905;DHT22;28550;51.228;4.528;2023-03-01T09:27:08;11.30;43.20
42905;DHT22;28550;51.228;4.528;2023-03-01T09:29:38;12.10;29.20
42905;DHT22;28550;51.228;4.528;2023-03-01T09:32:03;11.50;24.90
42905;DHT22;28550;51.228;4.528;2023-03-01T09:34:29;11.70;27.20
42905;DHT22;28550;51.228;4.528;2023-03-01T09:36:54;11.30;48.90
42905;DHT22;28550;51.228;4.528;2023-03-01T09:39:22;10.90;96.70
42905;DHT22;28550;51.228;4.528;2023-03-01T09:41:59;11.00;78.40
42905;DHT22;28550;51.228;4.528;2023-03-01T09:44:44;10.40;96.40
42905;DHT22;28550;51.228;4.528;2023-03-01T09:47:14;9.20;99.90
42905;DHT22;28550;51.228;4.528;2023-03-01T09:49:41;9.10;52.90
42905;DHT22;28550;51.228;4.528;2023-03-01T09:52:25;9.50;52.90
42905;DHT22;28550;51.228;4.528;2023-03-01T09:54:55;9.10;50.80
42905;DHT22;28550;51.228;4.528;2023-03-01T09:57:38;8.50;68.50
42905;DHT22;28550;51.228;4.528;2023-03-01T10:00:18;7.70;99.90
42905;DHT22;28550;51.228;4.528;2023-03-01T10:03:08;7.30;99.90
42905;DHT22;28550;51.228;4.528;2023-03-01T10:08:01;7.00;99.90
42905;DHT22;28550;51.228;4.528;2023-03-01T10:16:18;6.30;99.90
42905;DHT22;28550;51.228;4.528;2023-03-01T10:18:47;7.50;99.90
42905;DHT22;28550;51.228;4.528;2023-03-01T10:21:18;8.70;96.40
42905;DHT22;28550;51.228;4.528;2023-03-01T10:23:44;9.60;89.70
42905;DHT22;28550;51.228;4.528;2023-03-01T10:26:15;9.80;68.50
42905;DHT22;28550;51.228;4.528;2023-03-01T10:29:03;10.40;51.20
42905;DHT22;28550;51.228;4.528;2023-03-01T10:31:36;11.30;34.60
42905;DHT22;28550;51.228;4.528;2023-03-01T10:34:16;11.90;29.50
42905;DHT22;28550;51.228;4.528;2023-03-01T10:36:50;11.20;1.00
42905;DHT22;28550;51.228;4.528;2023-03-01T10:39:20;11.60;1.00
42905;DHT22;28550;51.228;4.528;2023-03-01T10:42:01;12.30;33.00
42905;DHT22;28550;51.228;4.528;2023-03-01T10:44:37;12.80;84.60
42905;DHT22;28550;51.228;4.528;2023-03-01T10:47:03;13.80;34.60
42905;DHT22;28550;51.228;4.528;2023-03-01T10:49:31;13.60;26.60
42905;DHT22;28550;51.228;4.528;2023-03-01T10:51:58;12.70;38.00
42905;DHT22;28550;51.228;4.528;2023-03-01T10:54:37;12.70;86.40
42905;DHT22;28550;51.228;4.528;2023-03-01T10:57:04;12.40;17.70
42905;DHT22;28550;51.228;4.528;2023-03-01T10:59:34;12.30;28.50
42905;DHT22;28550;51.228;4.528;2023-03-01T11:02:15;11.60;27.60
42905;DHT22;28550;51.228;4.528;2023-03-01T11:07:48;11.10;76.50
42905;DHT22;28550;51.228;4.528;2023-03-01T11:10:20;12.00;70.70
42905;DHT22;28550;51.228;4.528;2023-03-01T11:12:46;12.80;58.90
42905;DHT22;28550;51.228;4.528;2023-03-01T11:15:20;11.70;1.00
42905;DHT22;28550;51.228;4.528;2023-03-01T11:17:45;11.00;1.00
42905;DHT22;28550;51.228;4.528;2023-03-01T11:22:50;11.00;75.80
42905;DHT22;28550;51.228;4.528;2023-03-01T11:25:17;10.70;78.20
42905;DHT22;28550;51.228;4.528;2023-03-01T11:27:44;11.10;99.90
42905;DHT22;28550;51.228;4.528;2023-03-01T11:30:21;11.00;99.90
42905;DHT22;28550;51.228;4.528;2023-03-01T11:35:32;11.30;99.90
42905;DHT22;28550;51.228;4.528;2023-03-01T11:38:16;11.40;99.90
42905;DHT22;28550;51.228;4.528;2023-03-01T11:46:34;10.90;1.00
42905;DHT22;28550;51.228;4.528;2023-03-01T11:49:05;11.20;1.00
42905;DHT22;28550;51.228;4.528;2023-03-01T11:51:42;11.60;1.00
42905;DHT22;28550;51.228;4.528;2023-03-01T11:57:17;12.10;1.00
42905;DHT22;28550;51.228;4.528;2023-03-01T12:08:18;13.40;1.00
42905;DHT22;28550;51.228;4.528;2023-03-01T12:19:40;13.70;1.00
42905;DHT22;28550;51.228;4.528;2023-03-01T12:43:36;18.50;1.00
42905;DHT22;28550;51.228;4.528;2023-03-01T12:51:34;17.70;1.00
42905;DHT22;28550;51.228;4.528;2023-03-01T12:54:05;17.00;1.00
42905;DHT22;28550;51.228;4.528;2023-03-01T12:56:31;18.30;1.00
42905;DHT22;28550;51.228;4.528;2023-03-01T13:01:36;18.10;1.00
42905;DHT22;28550;51.228;4.528;2023-03-01T13:11:54;19.00;1.00
42905;DHT22;28550;51.228;4.528;2023-03-01T13:16:48;19.40;1.00
42905;DHT22;28550;51.228;4.528;2023-03-01T13:19:15;19.90;1.00
42905;DHT22;28550;51.228;4.528;2023-03-01T13:21:41;18.90;1.00
42905;DHT22;28550;51.228;4.528;2023-03-01T13:29:48;14.90;1.00
42905;DHT22;28550;51.228;4.528;2023-03-01T13:32:34;13.80;1.00
42905;DHT22;28550;51.228;4.528;2023-03-01T13:37:49;13.70;1.00
42905;DHT22;28550;51.228;4.528;2023-03-01T13:42:44;14.50;1.00
42905;DHT22;28550;51.228;4.528;2023-03-01T13:48:00;15.80;1.00
42905;DHT22;28550;51.228;4.528;2023-03-01T13:50:33;15.70;1.00
42905;DHT22;28550;51.228;4.528;2023-03-01T13:53:03;15.60;1.00
42905;DHT22;28550;51.228;4.528;2023-03-01T13:55:37;15.60;1.00
42905;DHT22;28550;51.228;4.528;2023-03-01T13:58:28;15.20;1.00
42905;DHT22;28550;51.228;4.528;2023-03-01T14:00:55;14.40;1.00
42905;DHT22;28550;51.228;4.528;2023-03-01T14:03:21;14.80;99.90
42905;DHT22;28550;51.228;4.528;2023-03-01T14:05:57;15.50;6.90
42905;DHT22;28550;51.228;4.528;2023-03-01T14:08:24;16.20;40.50
42905;DHT22;28550;51.228;4.528;2023-03-01T14:10:57;16.90;49.50
42905;DHT22;28550;51.228;4.528;2023-03-01T14:16:12;15.80;99.90
42905;DHT22;28550;51.228;4.528;2023-03-01T14:19:14;16.30;94.20
42905;DHT22;28550;51.228;4.528;2023-03-01T14:21:32;16.00;1.00
42905;DHT22;28550;51.228;4.528;2023-03-01T14:23:58;15.40;10.10
42905;DHT22;28550;51.228;4.528;2023-03-01T14:26:24;14.30;26.10
42905;DHT22;28550;51.228;4.528;2023-03-01T14:28:50;15.30;12.60
42905;DHT22;28550;51.228;4.528;2023-03-01T14:31:49;15.40;1.00
42905;DHT22;28550;51.228;4.528;2023-03-01T14:34:16;14.60;1.00
42905;DHT22;28550;51.228;4.528;2023-03-01T14:36:43;13.30;1.00
42905;DHT22;28550;51.228;4.528;2023-03-01T14:39:16;13.30;1.00
42905;DHT22;28550;51.228;4.528;2023-03-01T14:41:42;13.80;1.00
42905;DHT22;28550;51.228;4.528;2023-03-01T14:44:11;14.50;1.00
42905;DHT22;28550;51.228;4.528;2023-03-01T14:46:38;13.90;1.00
42905;DHT22;28550;51.228;4.528;2023-03-01T14:49:06;14.10;1.00
42905;DHT22;28550;51.228;4.528;2023-03-01T14:51:39;14.50;1.00
42905;DHT22;28550;51.228;4.528;2023-03-01T14:56:47;14.60;1.00
42905;DHT22;28550;51.228;4.528;2023-03-01T14:59:16;13.40;1.00
42905;DHT22;28550;51.228;4.528;2023-03-01T15:01:43;12.40;1.00
42905;DHT22;28550;51.228;4.528;2023-03-01T15:04:12;12.10;1.00
42905;DHT22;28550;51.228;4.528;2023-03-01T15:06:39;11.80;1.00
42905;DHT22;28550;51.228;4.528;2023-03-01T15:09:05;11.20;1.00
42905;DHT22;28550;51.228;4.528;2023-03-01T15:11:33;10.50;1.00
42905;DHT22;28550;51.228;4.528;2023-03-01T15:14:05;10.40;99.90
42905;DHT22;28550;51.228;4.528;2023-03-01T15:16:48;10.40;99.90
42905;DHT22;28550;51.228;4.528;2023-03-01T15:19:15;10.60;99.90
42905;DHT22;28550;51.228;4.528;2023-03-01T15:21:46;10.70;76.70
42905;DHT22;28550;51.228;4.528;2023-03-01T15:26:53;10.10;98.10
42905;DHT22;28550;51.228;4.528;2023-03-01T15:29:22;10.20;27.40
42905;DHT22;28550;51.228;4.528;2023-03-01T15:32:03;10.00;18.70
42905;DHT22;28550;51.228;4.528;2023-03-01T15:34:39;9.60;1.00
42905;DHT22;28550;51.228;4.528;2023-03-01T15:37:15;10.10;1.00
42905;DHT22;28550;51.228;4.528;2023-03-01T15:39:54;10.30;1.00
42905;DHT22;28550;51.228;4.528;2023-03-01T15:47:58;11.60;1.00
42905;DHT22;28550;51.228;4.528;2023-03-01T15:50:31;12.00;1.00
42905;DHT22;28550;51.228;4.528;2023-03-01T15:52:58;11.60;4.30
42905;DHT22;28550;51.228;4.528;2023-03-01T15:55:25;10.80;2.50
42905;DHT22;28550;51.228;4.528;2023-03-01T15:58:13;10.80;1.00
42905;DHT22;28550;51.228;4.528;2023-03-01T16:00:41;10.90;1.00
42905;DHT22;28550;51.228;4.528;2023-03-01T16:03:08;11.10;1.00
42905;DHT22;28550;51.228;4.528;2023-03-01T16:05:36;10.40;1.00
42905;DHT22;28550;51.228;4.528;2023-03-01T16:08:06;10.10;1.00
42905;DHT22;28550;51.228;4.528;2023-03-01T16:10:32;10.00;1.00
42905;DHT22;28550;51.228;4.528;2023-03-01T16:12:58;10.10;1.00
42905;DHT22;28550;51.228;4.528;2023-03-01T16:15:25;10.10;1.00
42905;DHT22;28550;51.228;4.528;2023-03-01T16:17:51;9.70;1.00
42905;DHT22;28550;51.228;4.528;2023-03-01T16:20:17;9.30;1.00
42905;DHT22;28550;51.228;4.528;2023-03-01T16:22:43;8.50;99.90
42905;DHT22;28550;51.228;4.528;2023-03-01T16:25:09;8.00;99.90
42905;DHT22;28550;51.228;4.528;2023-03-01T16:27:35;7.80;1.00
42905;DHT22;28550;51.228;4.528;2023-03-01T16:30:01;7.90;99.90
42905;DHT22;28550;51.228;4.528;2023-03-01T16:32:26;7.70;99.90
42905;DHT22;28550;51.228;4.528;2023-03-01T16:34:52;7.80;99.90
42905;DHT22;28550;51.228;4.528;2023-03-01T16:37:17;7.60;99.90
42905;DHT22;28550;51.228;4.528;2023-03-01T16:39:44;7.40;99.90
42905;DHT22;28550;51.228;4.528;2023-03-01T16:42:10;7.10;99.90
42905;DHT22;28550;51.228;4.528;2023-03-01T16:44:35;7.10;99.90
42905;DHT22;28550;51.228;4.528;2023-03-01T16:47:02;7.10;99.90
42905;DHT22;28550;51.228;4.528;2023-03-01T16:49:29;7.00;1.00
42905;DHT22;28550;51.228;4.528;2023-03-01T16:51:56;7.00;99.90
42905;DHT22;28550;51.228;4.528;2023-03-01T16:54:23;6.90;99.90
42905;DHT22;28550;51.228;4.528;2023-03-01T16:56:48;6.90;1.00
42905;DHT22;28550;51.228;4.528;2023-03-01T16:59:15;6.80;99.90
42905;DHT22;28550;51.228;4.528;2023-03-01T17:01:40;6.80;1.00
42905;DHT22;28550;51.228;4.528;2023-03-01T17:04:08;6.70;99.90
42905;DHT22;28550;51.228;4.528;2023-03-01T17:06:35;6.70;1.00
42905;DHT22;28550;51.228;4.528;2023-03-01T17:09:00;6.60;99.90
42905;DHT22;28550;51.228;4.528;2023-03-01T17:11:26;6.50;1.00
42905;DHT22;28550;51.228;4.528;2023-03-01T17:13:53;6.40;1.00
42905;DHT22;28550;51.228;4.528;2023-03-01T17:16:20;6.10;1.00
42905;DHT22;28550;51.228;4.528;2023-03-01T17:18:46;6.00;1.00
42905;DHT22;28550;51.228;4.528;2023-03-01T17:21:12;5.80;1.00
42905;DHT22;28550;51.228;4.528;2023-03-01T17:23:38;5.80;1.00
42905;DHT22;28550;51.228;4.528;2023-03-01T17:26:06;5.70;1.00
42905;DHT22;28550;51.228;4.528;2023-03-01T17:28:32;5.50;21.50
42905;DHT22;28550;51.228;4.528;2023-03-01T17:30:58;5.50;73.80
42905;DHT22;28550;51.228;4.528;2023-03-01T17:33:24;5.50;99.90
42905;DHT22;28550;51.228;4.528;2023-03-01T17:35:50;5.50;99.90
42905;DHT22;28550;51.228;4.528;2023-03-01T17:38:16;5.40;99.90
42905;DHT22;28550;51.228;4.528;2023-03-01T17:40:43;5.30;99.90
42905;DHT22;28550;51.228;4.528;2023-03-01T17:43:12;5.20;99.90
42905;DHT22;28550;51.228;4.528;2023-03-01T17:45:38;5.10;1.00
42905;DHT22;28550;51.228;4.528;2023-03-01T17:48:09;5.10;1.00
42905;DHT22;28550;51.228;4.528;2023-03-01T17:50:36;5.10;1.00
42905;DHT22;28550;51.228;4.528;2023-03-01T17:53:05;5.00;1.00
42905;DHT22;28550;51.228;4.528;2023-03-01T17:55:40;4.90;1.00
42905;DHT22;28550;51.228;4.528;2023-03-01T17:58:07;4.80;99.90
42905;DHT22;28550;51.228;4.528;2023-03-01T18:00:33;4.70;99.90
42905;DHT22;28550;51.228;4.528;2023-03-01T18:02:59;4.70;99.90
42905;DHT22;28550;51.228;4.528;2023-03-01T18:05:25;4.60;99.90
42905;DHT22;28550;51.228;4.528;2023-03-01T18:07:51;4.60;99.90
42905;DHT22;28550;51.228;4.528;2023-03-01T18:10:19;4.60;1.00
42905;DHT22;28550;51.228;4.528;2023-03-01T18:12:45;4.40;1.00
42905;DHT22;28550;51.228;4.528;2023-03-01T18:15:11;4.30;99.90
42905;DHT22;28550;51.228;4.528;2023-03-01T18:17:36;4.30;1.00
42905;DHT22;28550;51.228;4.528;2023-03-01T18:20:03;4.30;99.90
42905;DHT22;28550;51.228;4.528;2023-03-01T18:22:29;4.30;99.90
42905;DHT22;28550;51.228;4.528;2023-03-01T18:24:55;4.40;99.90
42905;DHT22;28550;51.228;4.528;2023-03-01T18:27:21;4.30;99.90
42905;DHT22;28550;51.228;4.528;2023-03-01T18:29:46;4.30;99.90
42905;DHT22;28550;51.228;4.528;2023-03-01T18:32:12;4.10;1.00
42905;DHT22;28550;51.228;4.528;2023-03-01T18:34:37;4.00;99.90
42905;DHT22;28550;51.228;4.528;2023-03-01T18:37:03;4.00;99.90
42905;DHT22;28550;51.228;4.528;2023-03-01T18:39:29;4.00;99.90
42905;DHT22;28550;51.228;4.528;2023-03-01T18:41:54;3.90;1.00
42905;DHT22;28550;51.228;4.528;2023-03-01T18:44:20;3.80;5.50
42905;DHT22;28550;51.228;4.528;2023-03-01T18:46:45;3.90;1.00
42905;DHT22;28550;51.228;4.528;2023-03-01T18:49:13;3.80;36.80
42905;DHT22;28550;51.228;4.528;2023-03-01T18:51:39;3.80;1.00
42905;DHT22;28550;51.228;4.528;2023-03-01T18:54:04;3.60;99.90
42905;DHT22;28550;51.228;4.528;2023-03-01T18:56:31;3.50;99.90
42905;DHT22;28550;51.228;4.528;2023-03-01T18:58:56;3.50;99.90
42905;DHT22;28550;51.228;4.528;2023-03-01T19:01:26;3.50;99.90
42905;DHT22;28550;51.228;4.528;2023-03-01T19:03:52;3.40;1.00
42905;DHT22;28550;51.228;4.528;2023-03-01T19:06:32;3.40;1.00
42905;DHT22;28550;51.228;4.528;2023-03-01T19:08:59;3.40;1.00
42905;DHT22;28550;51.228;4.528;2023-03-01T19:11:26;3.40;45.70
42905;DHT22;28550;51.228;4.528;2023-03-01T19:13:55;3.30;99.90
42905;DHT22;28550;51.228;4.528;2023-03-01T19:16:22;3.20;1.00
42905;DHT22;28550;51.228;4.528;2023-03-01T19:18:50;3.10;1.00
42905;DHT22;28550;51.228;4.528;2023-03-01T19:21:23;3.10;1.00
42905;DHT22;28550;51.228;4.528;2023-03-01T19:23:53;3.10;1.00
42905;DHT22;28550;51.228;4.528;2023-03-01T19:26:20;3.00;1.00
42905;DHT22;28550;51.228;4.528;2023-03-01T19:31:52;3.00;38.10
42905;DHT22;28550;51.228;4.528;2023-03-01T19:34:18;2.90;13.00
42905;DHT22;28550;51.228;4.528;2023-03-01T19:36:44;2.90;1.00
42905;DHT22;28550;51.228;4.528;2023-03-01T20:12:55;2.70;99.90
